Time;durP1;ratioP1;P1;durP2;ratioP2;P2;SDS_P1;SDS_P2;PMS_P1;PMS_P2;Temp;Humidity;BMP_temperature;BMP_pressure;BME280_temperature;BME280_humidity;BME280_pressure;Samples;Min_cycle;Max_cycle;Signal;HPM_P1;HPM_P2
2021/05/03 00:05:25;;;;;;;7.83;4.37;;;;;;;12.04;69.75;98824.66;4226380;84;28606;-83
2021/05/03 00:11:28;;;;;;;8.05;4.08;;;;;;;11.99;67.38;98811.89;4224380;84;28602;-82
2021/05/03 00:17:30;;;;;;;6.28;4.03;;;;;;;12.49;65.25;98832.29;4260322;82;28641;-83
2021/05/03 00:23:32;;;;;;;7.28;4.30;;;;;;;12.65;63.48;98827.39;4274505;82;28618;-82
2021/05/03 00:29:34;;;;;;;5.60;3.90;;;;;;;12.64;63.60;98834.37;4395188;80;28620;-82
2021/05/03 00:35:36;;;;;;;7.00;4.08;;;;;;;12.30;63.77;98844.73;4423771;79;28656;-82
2021/05/03 00:41:38;;;;;;;7.70;4.55;;;;;;;12.24;62.84;98843.01;4427067;79;28575;-82
2021/05/03 00:47:41;;;;;;;7.87;4.67;;;;;;;12.73;61.09;98855.81;4431997;79;28624;-82
2021/05/03 00:53:43;;;;;;;7.15;3.85;;;;;;;12.41;61.78;98855.11;4401987;79;28624;-81
2021/05/03 00:59:46;;;;;;;6.10;4.15;;;;;;;12.90;60.50;98842.81;4323233;81;28609;-82
2021/05/03 01:05:48;;;;;;;7.60;4.22;;;;;;;13.10;60.26;98847.10;4304476;81;28568;-82
2021/05/03 01:11:50;;;;;;;7.60;4.65;;;;;;;13.02;63.79;98847.54;4301962;81;28650;-82
2021/05/03 01:18:03;;;;;;;9.83;5.30;;;;;;;12.57;68.13;98854.79;4306821;82;28603;-81
2021/05/03 01:24:06;;;;;;;9.75;5.08;;;;;;;12.37;70.99;98848.05;4307542;81;28560;-82
2021/05/03 01:30:10;;;;;;;9.50;5.58;;;;;;;12.58;71.00;98851.58;4334033;81;28637;-82
2021/05/03 01:36:12;;;;;;;8.30;4.90;;;;;;;12.40;74.42;98858.36;4339682;81;28621;-83
2021/05/03 01:42:15;;;;;;;10.30;5.78;;;;;;;11.98;81.50;98870.89;4280393;83;28602;-83
2021/05/03 01:48:21;;;;;;;11.08;6.12;;;;;;;12.23;81.23;98871.03;4406861;80;28600;-82
2021/05/03 01:54:23;;;;;;;11.93;6.92;;;;;;;12.32;81.80;98874.11;4425896;80;28648;-82
2021/05/03 02:00:25;;;;;;;11.55;5.90;;;;;;;12.40;81.88;98881.79;4426874;80;28587;-82
2021/05/03 02:06:27;;;;;;;11.48;6.42;;;;;;;12.30;85.47;98862.25;4327207;81;28608;-82
2021/05/03 02:12:29;;;;;;;10.10;6.28;;;;;;;12.01;89.92;98871.73;4354597;81;28998;-82
2021/05/03 02:18:32;;;;;;;8.95;5.65;;;;;;;12.14;88.92;98871.98;4354575;81;28600;-82
2021/05/03 02:24:34;;;;;;;10.78;6.22;;;;;;;12.04;90.06;98868.58;4279158;83;28641;-81
2021/05/03 02:30:37;;;;;;;12.55;7.40;;;;;;;12.17;87.55;98878.22;4310451;81;28578;-82
2021/05/03 02:36:39;;;;;;;11.83;7.08;;;;;;;12.48;83.78;98873.80;4310386;81;28625;-83
2021/05/03 02:42:50;;;;;;;13.13;6.70;;;;;;;12.07;89.52;98885.59;4296752;82;28580;-82
2021/05/03 02:48:52;;;;;;;12.65;7.60;;;;;;;11.72;93.05;98901.41;4280561;82;28599;-82
2021/05/03 02:54:54;;;;;;;9.98;6.40;;;;;;;11.60;93.36;98905.50;4418021;80;28613;-83
2021/05/03 03:00:56;;;;;;;11.20;7.05;;;;;;;12.17;87.15;98907.86;4423435;80;28567;-82
2021/05/03 03:06:58;;;;;;;10.35;6.53;;;;;;;11.77;90.56;98916.84;4407614;80;28644;-83
2021/05/03 03:19:11;;;;;;;8.48;6.90;;;;;;;11.94;83.60;98935.73;4463158;78;271301;-82
2021/05/03 03:25:16;;;;;;;7.95;5.10;;;;;;;11.94;83.60;98935.73;4385538;80;28646;-82
2021/05/03 03:31:18;;;;;;;9.08;5.37;;;;;;;11.28;87.21;98960.62;4395582;79;29048;-83
2021/05/03 03:37:20;;;;;;;8.93;5.17;;;;;;;11.53;85.68;98953.31;4396596;80;28627;-82
2021/05/03 03:43:22;;;;;;;7.08;5.15;;;;;;;11.79;80.93;98957.30;4411897;80;28558;-83
2021/05/03 03:49:24;;;;;;;8.05;4.80;;;;;;;11.59;81.00;98985.99;4395492;80;28569;-82
2021/05/03 03:55:27;;;;;;;7.55;4.90;;;;;;;11.54;80.83;98977.83;4376347;80;28575;-83
2021/05/03 04:01:31;;;;;;;7.67;4.58;;;;;;;12.05;75.68;98995.50;4418894;79;28602;-82
2021/05/03 04:26:07;;;;;;;5.20;3.90;;;;;;;11.76;75.12;98997.36;4414421;80;28647;-83
2021/05/03 04:32:09;;;;;;;6.90;4.42;;;;;;;12.09;72.34;99001.23;4404493;80;28652;-84
2021/05/03 04:38:11;;;;;;;7.20;4.33;;;;;;;12.02;72.79;99008.61;4388889;78;28642;-84
2021/05/03 04:44:13;;;;;;;7.25;4.92;;;;;;;12.59;70.62;99007.73;4420267;80;28631;-83
2021/05/03 04:50:15;;;;;;;8.20;5.08;;;;;;;12.61;71.08;99015.06;4390627;80;28583;-83
2021/05/03 04:56:17;;;;;;;8.73;5.42;;;;;;;12.57;70.39;99015.80;4405721;80;28577;-84
2021/05/03 05:02:19;;;;;;;6.08;4.35;;;;;;;12.60;70.41;99020.70;4411742;80;28575;-84
2021/05/03 05:08:22;;;;;;;7.92;4.72;;;;;;;12.79;68.66;99019.91;4388518;78;28606;-81
2021/05/03 05:14:25;;;;;;;5.85;3.83;;;;;;;13.08;66.94;99019.28;4409966;80;28571;-82
2021/05/03 05:20:27;;;;;;;5.95;3.83;;;;;;;13.13;62.44;99034.73;4391784;79;28569;-82
2021/05/03 05:26:29;;;;;;;5.05;3.55;;;;;;;12.61;63.04;99040.69;4373005;80;28627;-82
2021/05/03 05:32:31;;;;;;;5.28;4.03;;;;;;;12.74;59.91;99050.31;4380460;80;28598;-82
2021/05/03 05:38:35;;;;;;;6.47;3.20;;;;;;;12.14;63.30;99056.59;4402120;78;28654;-83
2021/05/03 05:44:37;;;;;;;6.50;3.70;;;;;;;12.95;59.75;99059.56;4395020;80;28593;-83
2021/05/03 05:50:40;;;;;;;5.05;3.60;;;;;;;13.58;57.97;99064.52;4390830;79;28595;-83
2021/05/03 05:56:42;;;;;;;5.00;3.35;;;;;;;12.87;60.12;99069.97;4401858;80;28962;-82
2021/05/03 06:02:45;;;;;;;4.70;3.30;;;;;;;12.51;59.37;99076.38;4397740;79;28616;-84
2021/05/03 06:08:48;;;;;;;3.92;2.62;;;;;;;12.66;58.12;99074.48;4295922;80;28658;-82
2021/05/03 06:14:53;;;;;;;3.85;2.40;;;;;;;12.69;55.69;99071.28;4249054;82;28654;-82
2021/05/03 06:20:55;;;;;;;3.47;1.90;;;;;;;13.09;52.34;99069.50;4299576;82;28650;-83
2021/05/03 06:26:58;;;;;;;3.20;2.10;;;;;;;13.57;51.48;99070.44;4286637;82;28621;-82
2021/05/03 06:33:04;;;;;;;3.50;1.90;;;;;;;13.20;51.37;99083.95;4245306;82;28643;-83
2021/05/03 06:39:09;;;;;;;3.12;1.82;;;;;;;12.68;53.72;99097.17;4268841;81;28650;-83
2021/05/03 06:45:11;;;;;;;3.40;2.08;;;;;;;13.78;50.61;99093.67;4269356;82;28583;-83
2021/05/03 06:51:13;;;;;;;4.10;2.65;;;;;;;13.64;51.82;99102.16;4289315;82;28616;-85
2021/05/03 06:57:16;;;;;;;2.60;2.02;;;;;;;13.93;51.95;99101.15;4208768;83;28578;-85
2021/05/03 07:03:18;;;;;;;4.33;2.70;;;;;;;14.18;51.20;99106.59;4271022;82;28584;-82
2021/05/03 07:09:20;;;;;;;3.45;2.00;;;;;;;14.30;51.03;99117.25;4267585;82;28591;-82
2021/05/03 07:15:23;;;;;;;3.62;2.30;;;;;;;14.32;50.89;99105.11;4295566;81;28637;-82
2021/05/03 07:21:26;;;;;;;3.83;2.47;;;;;;;13.89;51.23;99105.44;4305576;81;28572;-82
2021/05/03 07:27:28;;;;;;;4.30;2.40;;;;;;;14.45;48.42;99113.37;4245647;81;28586;-86
2021/05/03 07:33:30;;;;;;;3.67;2.17;;;;;;;14.71;46.70;99112.25;4308906;82;28546;-81
2021/05/03 07:39:33;;;;;;;3.95;2.20;;;;;;;15.09;46.38;99119.09;4245274;83;28579;-81
2021/05/03 07:45:36;;;;;;;4.45;3.00;;;;;;;15.19;46.75;99131.91;4273909;82;28621;-82
2021/05/03 07:51:38;;;;;;;5.28;3.50;;;;;;;15.95;47.50;99135.90;4266751;82;28620;-84
2021/05/03 07:57:42;;;;;;;5.60;3.37;;;;;;;15.44;49.37;99157.53;4271690;82;28575;-83
2021/05/03 08:03:44;;;;;;;6.12;3.75;;;;;;;15.57;49.49;99159.81;4260686;82;28617;-82
2021/05/03 08:09:47;;;;;;;5.72;3.67;;;;;;;15.77;49.72;99161.54;4318283;80;28644;-84
2021/05/03 08:15:51;;;;;;;6.12;3.37;;;;;;;15.54;48.71;99180.63;4278174;82;28665;-82
2021/05/03 08:21:54;;;;;;;5.72;3.30;;;;;;;15.58;46.94;99184.47;4353913;81;28654;-80
2021/05/03 08:27:56;;;;;;;5.42;3.30;;;;;;;15.15;47.16;99199.83;4338823;81;28606;-81
2021/05/03 08:33:58;;;;;;;6.90;4.12;;;;;;;15.47;46.45;99205.80;4318192;81;28568;-81
2021/05/03 08:40:01;;;;;;;6.70;4.50;;;;;;;15.32;47.91;99199.72;4388776;80;28581;-80
2021/05/03 08:46:03;;;;;;;6.28;3.87;;;;;;;14.86;49.72;99208.24;4411449;79;28624;-81
2021/05/03 08:58:27;;;;;;;4.35;2.42;;;;;;;15.34;45.32;99213.27;4470290;77;87150;-81
2021/05/03 09:04:30;;;;;;;3.40;2.05;;;;;;;15.11;45.22;99213.09;4395810;79;28628;-81
2021/05/03 09:10:33;;;;;;;4.50;2.20;;;;;;;14.69;44.07;99222.64;4398423;79;28627;-80
2021/05/03 09:16:44;;;;;;;2.75;1.95;;;;;;;14.75;43.59;99242.48;4400847;79;28561;-83
2021/05/03 09:22:58;;;;;;;2.65;1.57;;;;;;;14.58;44.36;99233.91;4380517;79;28584;-82
2021/05/03 09:28:59;;;;;;;2.42;1.22;;;;;;;14.37;41.76;99249.05;4391787;79;28549;-79
2021/05/03 09:35:01;;;;;;;3.85;1.35;;;;;;;14.77;41.80;99247.94;4388290;80;28588;-80
2021/05/03 09:41:16;;;;;;;2.42;1.40;;;;;;;14.89;41.58;99252.39;4399580;79;28604;-80
2021/05/03 09:47:19;;;;;;;4.20;1.37;;;;;;;15.23;41.43;99249.47;4380418;79;47679;-85
2021/05/03 09:53:21;;;;;;;2.33;1.07;;;;;;;14.81;40.69;99246.06;4375263;79;28568;-87
2021/05/03 09:59:44;;;;;;;2.10;1.20;;;;;;;15.37;39.26;99243.64;4431656;80;28570;-86
2021/05/03 10:05:46;;;;;;;2.70;1.22;;;;;;;15.53;38.70;99233.20;4430503;80;28627;-86
2021/05/03 10:11:48;;;;;;;2.12;1.17;;;;;;;15.19;38.45;99232.91;4420323;78;28662;-87
2021/05/03 10:17:51;;;;;;;1.60;1.12;;;;;;;16.09;37.78;99234.70;4427457;80;28560;-86
2021/05/03 10:23:55;;;;;;;2.08;1.20;;;;;;;15.01;37.64;99246.28;4322824;81;28577;-86
2021/05/03 10:30:12;;;;;;;2.42;1.20;;;;;;;14.90;38.33;99248.61;4292121;81;28581;-87
2021/05/03 10:36:38;;;;;;;2.42;1.00;;;;;;;15.28;36.99;99243.28;4276786;81;28619;-85
2021/05/03 10:43:05;;;;;;;3.62;1.02;;;;;;;13.54;41.38;99272.19;4291709;82;28609;-86
2021/05/03 10:49:16;;;;;;;1.92;0.85;;;;;;;14.38;39.28;99283.14;4311635;82;28654;-83
2021/05/03 10:55:17;;;;;;;1.67;0.80;;;;;;;14.34;37.73;99284.17;4336202;82;28654;-84
2021/05/03 11:01:20;;;;;;;2.98;1.00;;;;;;;14.66;37.61;99270.52;4333531;82;28655;-82
2021/05/03 11:07:22;;;;;;;1.57;1.07;;;;;;;15.37;37.61;99257.98;4328533;82;28582;-84
2021/05/03 11:13:53;;;;;;;2.95;1.27;;;;;;;15.95;38.21;99247.89;4322584;82;28609;-84
2021/05/03 11:26:26;;;;;;;5.25;1.12;;;;;;;16.29;34.51;99238.56;4503050;78;84813;-83
2021/05/03 11:32:33;;;;;;;2.62;1.15;;;;;;;16.30;34.33;99243.73;4400770;80;28595;-83
2021/05/03 11:38:53;;;;;;;2.42;1.10;;;;;;;17.19;32.76;99231.25;4374293;80;28592;-82
2021/05/03 11:51:27;;;;;;;1.80;1.07;;;;;;;16.05;33.53;99244.41;4673464;76;71721;-83
2021/05/03 11:57:29;;;;;;;1.92;1.00;;;;;;;15.65;35.41;99273.67;4585574;77;28562;-86
2021/05/03 12:03:37;;;;;;;2.87;1.30;;;;;;;14.89;39.92;99311.42;4430898;79;28627;-83
2021/05/03 12:09:41;;;;;;;3.45;1.40;;;;;;;15.70;37.76;99293.23;4399123;80;28597;-85
2021/05/03 12:15:43;;;;;;;4.28;1.52;;;;;;;15.10;39.32;99305.41;4363525;81;28597;-83
2021/05/03 12:21:45;;;;;;;2.55;1.32;;;;;;;16.35;36.48;99283.64;4363862;82;28620;-82
2021/05/03 12:27:47;;;;;;;3.77;1.50;;;;;;;15.83;35.05;99277.07;4346452;82;28640;-83
2021/05/03 12:33:51;;;;;;;2.65;1.50;;;;;;;16.88;34.86;99277.34;4364542;81;28595;-85
2021/05/03 12:40:12;;;;;;;3.50;1.40;;;;;;;18.28;35.37;99261.63;4363940;81;28596;-82
2021/05/03 12:46:28;;;;;;;2.45;1.40;;;;;;;17.63;34.17;99259.81;4309052;81;28599;-83
2021/05/03 12:52:30;;;;;;;2.75;1.60;;;;;;;17.83;34.13;99260.88;4362223;81;28643;-84
2021/05/03 12:58:41;;;;;;;2.52;1.40;;;;;;;17.30;34.08;99261.15;4362314;81;28569;-82
2021/05/03 13:04:48;;;;;;;4.00;1.75;;;;;;;17.03;34.71;99253.51;4394033;80;29031;-84
2021/05/03 13:29:56;;;;;;;4.30;1.45;;;;;;;16.65;40.33;99245.51;4410585;80;28658;-84
2021/05/03 13:35:58;;;;;;;3.40;1.90;;;;;;;16.56;37.31;99244.39;4362134;82;28623;-84
2021/05/03 13:42:00;;;;;;;2.50;1.32;;;;;;;17.17;35.72;99239.39;4361775;81;28604;-82
2021/05/03 13:48:03;;;;;;;2.75;1.42;;;;;;;16.66;34.35;99240.88;4376614;80;28707;-84
2021/05/03 13:54:05;;;;;;;2.58;1.20;;;;;;;16.76;33.80;99240.11;4440876;80;28599;-83
2021/05/03 14:00:09;;;;;;;3.25;1.20;;;;;;;17.05;32.68;99235.03;4428549;80;28605;-85
2021/05/03 14:06:18;;;;;;;2.67;1.30;;;;;;;16.56;32.71;99233.00;4379314;80;28624;-83
2021/05/03 14:12:20;;;;;;;2.55;1.47;;;;;;;16.74;32.74;99224.08;4383398;80;28618;-83
2021/05/03 14:18:22;;;;;;;1.95;1.20;;;;;;;16.18;32.80;99236.36;4428990;80;28673;-83
2021/05/03 14:24:24;;;;;;;2.65;1.40;;;;;;;16.28;32.24;99239.13;4439431;80;28576;-84
2021/05/03 14:30:40;;;;;;;3.92;1.45;;;;;;;15.68;32.38;99232.49;4397312;80;28625;-83
2021/05/03 14:36:32;;;;;;;2.87;1.30;;;;;;;15.84;32.07;99247.52;4374213;80;28668;-81
2021/05/03 14:42:34;;;;;;;4.50;1.32;;;;;;;15.56;32.88;99228.60;4409932;80;28585;-84
2021/05/03 14:55:05;;;;;;;3.72;1.90;;;;;;;15.68;33.56;99235.20;4479546;79;85222;-82
2021/05/03 15:01:08;;;;;;;3.12;1.40;;;;;;;16.10;33.21;99230.90;4398128;80;28681;-82
2021/05/03 15:07:13;;;;;;;1.95;1.10;;;;;;;16.56;32.29;99230.29;4423110;80;28604;-84
2021/05/03 15:13:22;;;;;;;2.05;1.37;;;;;;;16.03;31.67;99238.45;4413852;80;28587;-83
2021/05/03 15:25:26;;;;;;;2.08;1.15;;;;;;;16.55;32.20;99222.41;4435748;80;28567;-84
2021/05/03 15:31:43;;;;;;;2.47;1.50;;;;;;;16.00;31.58;99226.22;4384753;80;28579;-84
2021/05/03 15:37:36;;;;;;;2.70;1.40;;;;;;;16.19;31.41;99230.38;4386446;80;28590;-84
2021/05/03 15:43:40;;;;;;;2.83;1.40;;;;;;;16.13;32.03;99231.72;4400207;80;28569;-85
2021/05/03 15:49:44;;;;;;;2.80;1.40;;;;;;;15.39;32.15;99238.78;4429913;80;28690;-84
2021/05/03 15:55:49;;;;;;;3.33;1.70;;;;;;;15.76;31.93;99235.25;4293803;81;28707;-84
2021/05/03 16:01:55;;;;;;;4.33;1.60;;;;;;;16.21;32.94;99215.48;4295374;82;28597;-83
2021/05/03 16:07:58;;;;;;;3.70;1.72;;;;;;;15.57;33.52;99222.13;4287106;82;28565;-84
2021/05/03 16:14:02;;;;;;;2.92;1.72;;;;;;;15.76;34.42;99220.34;4306030;81;28607;-86
2021/05/03 16:20:05;;;;;;;3.05;1.52;;;;;;;16.25;33.99;99230.16;4272329;82;28657;-88
2021/05/03 16:26:09;;;;;;;3.75;2.22;;;;;;;16.22;33.92;99239.36;4304243;81;28649;-86
2021/05/03 16:32:12;;;;;;;4.65;2.20;;;;;;;16.73;34.19;99238.21;4318651;81;28606;-86
2021/05/03 16:38:16;;;;;;;4.67;2.20;;;;;;;16.44;34.12;99230.51;4332943;81;28597;-83
2021/05/03 16:44:19;;;;;;;4.45;2.55;;;;;;;15.78;33.74;99243.97;4315818;81;28591;-82
2021/05/03 16:50:23;;;;;;;4.97;2.40;;;;;;;15.96;34.45;99234.61;4324079;80;28589;-82
2021/05/03 16:56:27;;;;;;;4.10;2.15;;;;;;;14.33;36.99;99260.91;4373064;81;28563;-80
2021/05/03 17:02:41;;;;;;;5.00;2.40;;;;;;;14.00;37.71;99258.56;4583960;76;85111;-82
2021/05/03 17:08:43;;;;;;;5.20;2.30;;;;;;;14.90;36.26;99251.31;4483191;78;28633;-84
2021/05/03 17:14:47;;;;;;;3.87;2.25;;;;;;;14.84;36.02;99261.27;4512849;78;28620;-83
2021/05/03 17:20:49;;;;;;;4.58;2.30;;;;;;;15.18;35.63;99252.14;4505559;78;28596;-83
2021/05/03 17:26:52;;;;;;;3.77;2.00;;;;;;;15.61;35.29;99251.69;4487934;78;28661;-82
2021/05/03 17:32:57;;;;;;;5.10;2.60;;;;;;;15.11;35.68;99251.00;4507444;78;28608;-82
2021/05/03 17:39:00;;;;;;;5.55;2.62;;;;;;;14.86;36.48;99249.64;4489972;78;28561;-83
2021/05/03 17:45:03;;;;;;;4.97;2.33;;;;;;;14.83;36.63;99254.22;4513762;78;28574;-83
2021/05/03 17:51:06;;;;;;;4.55;2.10;;;;;;;14.80;36.83;99266.09;4381859;80;28794;-83
2021/05/03 17:57:08;;;;;;;4.53;2.30;;;;;;;14.73;37.27;99266.28;4336564;81;28573;-82
2021/05/03 18:03:11;;;;;;;4.03;2.50;;;;;;;14.48;38.10;99264.89;4383079;80;28624;-82
2021/05/03 18:09:14;;;;;;;3.70;2.52;;;;;;;14.18;38.79;99275.03;4361949;80;28619;-81
2021/05/03 18:15:16;;;;;;;4.72;2.40;;;;;;;13.73;40.15;99278.70;4330646;81;28942;-80
2021/05/03 18:21:23;;;;;;;6.08;2.75;;;;;;;13.29;42.38;99282.82;4339751;80;28645;-82
2021/05/03 18:27:23;;;;;;;6.95;2.85;;;;;;;13.36;43.23;99290.22;4356339;80;28568;-80
2021/05/03 18:33:26;;;;;;;5.42;2.95;;;;;;;12.88;44.68;99300.95;4341466;81;28597;-81
2021/05/03 18:39:28;;;;;;;6.05;2.75;;;;;;;12.69;45.27;99297.88;4356850;80;28690;-84
2021/05/03 18:45:35;;;;;;;7.33;3.75;;;;;;;12.46;47.88;99300.12;4340666;80;28621;-82
2021/05/03 18:51:34;;;;;;;7.90;4.00;;;;;;;12.24;49.00;99311.52;4341514;80;28647;-81
2021/05/03 18:57:37;;;;;;;8.43;3.37;;;;;;;12.23;49.02;99308.50;4325040;81;28618;-81
2021/05/03 19:03:39;;;;;;;9.28;4.25;;;;;;;12.22;50.43;99312.25;4353626;80;28656;-81
2021/05/03 19:09:42;;;;;;;10.85;4.47;;;;;;;12.17;52.01;99308.63;4335831;80;28601;-83
2021/05/03 19:15:44;;;;;;;11.12;4.67;;;;;;;12.23;50.42;99309.05;4366427;80;28596;-82
2021/05/03 19:21:46;;;;;;;9.15;5.03;;;;;;;12.13;52.57;99319.88;4357890;81;28567;-83
2021/05/03 19:27:48;;;;;;;9.23;4.75;;;;;;;11.84;53.65;99325.09;4321862;80;28622;-83
2021/05/03 19:33:50;;;;;;;10.35;5.20;;;;;;;11.83;55.10;99320.77;4346089;80;28570;-83
2021/05/03 19:39:55;;;;;;;9.75;4.50;;;;;;;11.78;53.14;99316.62;4360560;81;28614;-82
2021/05/03 19:46:02;;;;;;;23.03;11.00;;;;;;;11.57;55.58;99311.23;4352236;80;28662;-83
2021/05/03 20:02:50;;;;;;;10.00;5.08;;;;;;;11.57;55.80;99319.31;4353799;80;28593;-85
2021/05/03 20:04:36;;;;;;;10.00;5.35;;;;;;;11.39;57.20;99317.52;4338210;80;28927;-86
2021/05/03 20:10:38;;;;;;;10.43;5.78;;;;;;;11.47;56.72;99322.58;4394705;80;28636;-85
2021/05/03 20:16:41;;;;;;;12.10;6.08;;;;;;;11.19;57.84;99323.17;4349113;80;28622;-86
2021/05/03 20:22:44;;;;;;;17.10;7.97;;;;;;;11.28;55.50;99324.49;4361663;80;28598;-86
2021/05/03 20:28:46;;;;;;;12.95;6.10;;;;;;;11.14;58.07;99324.69;4358037;80;28572;-85
2021/05/03 20:41:15;;;;;;;13.15;6.72;;;;;;;11.14;60.13;99326.03;4399095;79;86251;-86
2021/05/03 20:47:19;;;;;;;13.58;7.42;;;;;;;10.96;58.10;99322.02;4321353;80;28676;-86
2021/05/03 20:53:24;;;;;;;15.10;8.28;;;;;;;10.87;59.25;99316.14;4313116;81;28600;-86
2021/05/03 20:59:26;;;;;;;15.45;7.35;;;;;;;10.71;59.25;99329.14;4326999;80;28625;-87
2021/05/03 21:05:28;;;;;;;15.45;8.18;;;;;;;10.51;61.79;99319.97;4337617;80;28576;-86
2021/05/03 21:11:30;;;;;;;18.10;8.30;;;;;;;10.23;63.86;99314.53;4314688;80;28639;-86
2021/05/03 21:17:34;;;;;;;15.95;8.90;;;;;;;10.15;63.94;99306.75;4339499;81;28584;-84
2021/05/03 21:23:36;;;;;;;18.15;9.40;;;;;;;9.97;63.66;99304.86;4321169;80;28575;-84
2021/05/03 21:29:38;;;;;;;18.65;8.95;;;;;;;9.81;65.33;99311.61;4332955;80;28613;-84
2021/05/03 21:35:41;;;;;;;21.23;9.40;;;;;;;9.74;66.17;99297.73;4324360;80;28605;-85
2021/05/03 21:41:43;;;;;;;19.35;9.48;;;;;;;9.96;63.65;99293.30;4316168;80;28652;-85
2021/05/03 21:47:45;;;;;;;19.85;9.88;;;;;;;10.05;63.47;99293.84;4319781;80;28596;-84
2021/05/03 21:53:47;;;;;;;18.15;9.68;;;;;;;10.00;64.95;99293.16;4343589;80;28583;-82
2021/05/03 21:59:49;;;;;;;17.65;8.88;;;;;;;9.95;63.49;99292.17;4311290;80;28653;-88
2021/05/03 22:05:53;;;;;;;18.02;9.20;;;;;;;9.76;63.19;99294.80;4326149;80;28596;-87
2021/05/03 22:11:57;;;;;;;17.73;9.40;;;;;;;9.66;63.47;99292.63;4320731;80;28639;-86
2021/05/03 22:18:09;;;;;;;19.85;10.48;;;;;;;9.26;65.92;99304.45;4299930;80;28606;-88
2021/05/03 22:24:21;;;;;;;21.50;10.60;;;;;;;9.29;65.36;99305.88;4336341;80;28663;-84
2021/05/03 22:30:20;;;;;;;20.05;9.50;;;;;;;9.47;66.04;99313.19;4330582;80;28553;-83
2021/05/03 22:36:34;;;;;;;20.45;10.00;;;;;;;9.30;67.36;99311.55;4340304;80;28570;-83
2021/05/03 23:20:19;;;;;;;15.85;7.37;;;;;;;8.52;70.81;99298.11;4295218;81;28574;-85
2021/05/03 23:26:21;;;;;;;17.17;8.73;;;;;;;8.40;70.77;99297.89;4308849;82;28659;-84
2021/05/03 23:32:23;;;;;;;16.57;8.15;;;;;;;8.37;70.44;99284.92;4324820;82;28689;-85
2021/05/03 23:38:25;;;;;;;16.40;7.97;;;;;;;8.19;73.28;99286.40;4321667;81;28586;-84
2021/05/03 23:44:27;;;;;;;15.78;8.28;;;;;;;8.29;71.11;99288.66;4333215;81;28579;-84
2021/05/03 23:50:29;;;;;;;15.23;8.00;;;;;;;8.23;70.66;99277.44;4354044;81;28666;-83
2021/05/03 23:56:31;;;;;;;17.20;8.15;;;;;;;8.09;71.49;99276.63;4348162;81;28611;-83
